sensor_id;sensor_type;location;lat;lon;timestamp;temperature;humidity
314;DHT22;143;51.634;7.112;2023-04-24T00:00:55;11.30;1.00
314;DHT22;143;51.634;7.112;2023-04-24T00:03:23;11.20;1.00
314;DHT22;143;51.634;7.112;2023-04-24T00:05:49;11.40;1.00
314;DHT22;143;51.634;7.112;2023-04-24T00:08:15;11.20;1.00
314;DHT22;143;51.634;7.112;2023-04-24T00:10:41;11.10;1.00
314;DHT22;143;51.634;7.112;2023-04-24T00:13:06;11.20;1.00
314;DHT22;143;51.634;7.112;2023-04-24T00:15:32;11.40;1.00
314;DHT22;143;51.634;7.112;2023-04-24T00:17:58;11.20;1.00
314;DHT22;143;51.634;7.112;2023-04-24T00:20:24;11.30;1.00
314;DHT22;143;51.634;7.112;2023-04-24T00:22:49;11.20;1.00
314;DHT22;143;51.634;7.112;2023-04-24T00:25:15;11.20;1.00
314;DHT22;143;51.634;7.112;2023-04-24T00:27:41;11.20;1.00
314;DHT22;143;51.634;7.112;2023-04-24T00:30:07;11.40;1.00
314;DHT22;143;51.634;7.112;2023-04-24T00:32:33;11.20;1.00
314;DHT22;143;51.634;7.112;2023-04-24T00:34:58;11.20;1.00
314;DHT22;143;51.634;7.112;2023-04-24T00:37:24;11.50;1.00
314;DHT22;143;51.634;7.112;2023-04-24T00:39:50;11.30;1.00
314;DHT22;143;51.634;7.112;2023-04-24T00:42:16;11.20;1.00
314;DHT22;143;51.634;7.112;2023-04-24T00:44:42;11.20;1.00
314;DHT22;143;51.634;7.112;2023-04-24T00:47:07;11.20;1.00
314;DHT22;143;51.634;7.112;2023-04-24T00:49:33;11.20;1.00
314;DHT22;143;51.634;7.112;2023-04-24T00:51:59;11.20;1.00
314;DHT22;143;51.634;7.112;2023-04-24T00:54:24;11.20;1.00
314;DHT22;143;51.634;7.112;2023-04-24T00:56:50;11.20;1.00
314;DHT22;143;51.634;7.112;2023-04-24T00:59:17;11.20;1.00
314;DHT22;143;51.634;7.112;2023-04-24T01:01:44;11.20;1.00
314;DHT22;143;51.634;7.112;2023-04-24T01:04:12;11.40;1.00
314;DHT22;143;51.634;7.112;2023-04-24T01:06:43;11.20;1.00
314;DHT22;143;51.634;7.112;2023-04-24T01:09:10;11.20;1.00
314;DHT22;143;51.634;7.112;2023-04-24T01:11:37;11.20;1.00
314;DHT22;143;51.634;7.112;2023-04-24T01:14:03;11.00;1.00
314;DHT22;143;51.634;7.112;2023-04-24T01:16:28;11.00;1.00
314;DHT22;143;51.634;7.112;2023-04-24T01:18:54;10.90;1.00
314;DHT22;143;51.634;7.112;2023-04-24T01:21:21;10.90;1.00
314;DHT22;143;51.634;7.112;2023-04-24T01:23:47;11.10;1.00
314;DHT22;143;51.634;7.112;2023-04-24T01:26:16;10.90;1.00
314;DHT22;143;51.634;7.112;2023-04-24T01:28:42;11.10;1.00
314;DHT22;143;51.634;7.112;2023-04-24T01:31:08;10.80;1.00
314;DHT22;143;51.634;7.112;2023-04-24T01:33:34;10.80;1.00
314;DHT22;143;51.634;7.112;2023-04-24T01:36:00;10.80;1.00
314;DHT22;143;51.634;7.112;2023-04-24T01:38:26;10.80;1.00
314;DHT22;143;51.634;7.112;2023-04-24T01:40:52;10.80;1.00
314;DHT22;143;51.634;7.112;2023-04-24T01:43:18;10.70;1.00
314;DHT22;143;51.634;7.112;2023-04-24T01:45:44;10.80;1.00
314;DHT22;143;51.634;7.112;2023-04-24T01:48:11;10.70;1.00
314;DHT22;143;51.634;7.112;2023-04-24T01:50:38;10.50;1.00
314;DHT22;143;51.634;7.112;2023-04-24T01:53:03;10.50;1.00
314;DHT22;143;51.634;7.112;2023-04-24T01:55:29;10.60;1.00
314;DHT22;143;51.634;7.112;2023-04-24T01:57:56;10.30;1.00
314;DHT22;143;51.634;7.112;2023-04-24T02:00:23;10.30;1.00
314;DHT22;143;51.634;7.112;2023-04-24T02:02:50;10.10;1.00
314;DHT22;143;51.634;7.112;2023-04-24T02:05:15;10.20;1.00
314;DHT22;143;51.634;7.112;2023-04-24T02:07:41;10.20;1.00
314;DHT22;143;51.634;7.112;2023-04-24T02:10:07;10.00;1.00
314;DHT22;143;51.634;7.112;2023-04-24T02:12:33;10.20;1.00
314;DHT22;143;51.634;7.112;2023-04-24T02:14:58;9.90;1.00
314;DHT22;143;51.634;7.112;2023-04-24T02:17:24;10.00;1.00
314;DHT22;143;51.634;7.112;2023-04-24T02:19:50;10.00;1.00
314;DHT22;143;51.634;7.112;2023-04-24T02:22:15;10.10;1.00
314;DHT22;143;51.634;7.112;2023-04-24T02:24:41;10.20;1.00
314;DHT22;143;51.634;7.112;2023-04-24T02:27:07;10.20;1.00
314;DHT22;143;51.634;7.112;2023-04-24T02:29:33;10.20;1.00
314;DHT22;143;51.634;7.112;2023-04-24T02:31:58;10.20;1.00
314;DHT22;143;51.634;7.112;2023-04-24T02:34:24;10.00;1.00
314;DHT22;143;51.634;7.112;2023-04-24T02:36:50;10.00;1.00
314;DHT22;143;51.634;7.112;2023-04-24T02:39:16;9.90;1.00
314;DHT22;143;51.634;7.112;2023-04-24T02:41:42;10.00;1.00
314;DHT22;143;51.634;7.112;2023-04-24T02:44:08;9.90;1.00
314;DHT22;143;51.634;7.112;2023-04-24T02:46:34;10.10;1.00
314;DHT22;143;51.634;7.112;2023-04-24T02:48:59;9.90;1.00
314;DHT22;143;51.634;7.112;2023-04-24T02:51:25;9.90;1.00
314;DHT22;143;51.634;7.112;2023-04-24T02:53:52;10.20;1.00
314;DHT22;143;51.634;7.112;2023-04-24T02:56:18;10.20;1.00
314;DHT22;143;51.634;7.112;2023-04-24T02:58:43;9.90;1.00
314;DHT22;143;51.634;7.112;2023-04-24T03:01:09;9.70;1.00
314;DHT22;143;51.634;7.112;2023-04-24T03:03:36;10.00;1.00
314;DHT22;143;51.634;7.112;2023-04-24T03:06:02;9.60;1.00
314;DHT22;143;51.634;7.112;2023-04-24T03:08:27;9.90;1.00
314;DHT22;143;51.634;7.112;2023-04-24T03:10:53;9.90;1.00
314;DHT22;143;51.634;7.112;2023-04-24T03:13:19;9.80;1.00
314;DHT22;143;51.634;7.112;2023-04-24T03:15:44;9.80;1.00
314;DHT22;143;51.634;7.112;2023-04-24T03:18:11;9.70;1.00
314;DHT22;143;51.634;7.112;2023-04-24T03:20:37;9.60;1.00
314;DHT22;143;51.634;7.112;2023-04-24T03:23:03;9.80;1.00
314;DHT22;143;51.634;7.112;2023-04-24T03:25:29;9.90;1.00
314;DHT22;143;51.634;7.112;2023-04-24T03:27:54;9.80;1.00
314;DHT22;143;51.634;7.112;2023-04-24T03:30:20;9.70;1.00
314;DHT22;143;51.634;7.112;2023-04-24T03:32:46;9.70;1.00
314;DHT22;143;51.634;7.112;2023-04-24T03:35:12;9.60;1.00
314;DHT22;143;51.634;7.112;2023-04-24T03:37:37;9.60;1.00
314;DHT22;143;51.634;7.112;2023-04-24T03:40:03;9.60;1.00
314;DHT22;143;51.634;7.112;2023-04-24T03:42:29;9.60;1.00
314;DHT22;143;51.634;7.112;2023-04-24T03:44:55;9.70;1.00
314;DHT22;143;51.634;7.112;2023-04-24T03:47:21;9.60;1.00
314;DHT22;143;51.634;7.112;2023-04-24T03:49:46;9.60;1.00
314;DHT22;143;51.634;7.112;2023-04-24T03:52:12;9.60;1.00
314;DHT22;143;51.634;7.112;2023-04-24T03:54:38;9.70;1.00
314;DHT22;143;51.634;7.112;2023-04-24T03:57:03;9.80;1.00
314;DHT22;143;51.634;7.112;2023-04-24T03:59:30;9.70;1.00
314;DHT22;143;51.634;7.112;2023-04-24T04:01:56;9.70;1.00
314;DHT22;143;51.634;7.112;2023-04-24T04:04:22;9.60;1.00
314;DHT22;143;51.634;7.112;2023-04-24T04:06:47;9.70;1.00
314;DHT22;143;51.634;7.112;2023-04-24T04:09:14;9.60;1.00
314;DHT22;143;51.634;7.112;2023-04-24T04:11:40;9.60;1.00
314;DHT22;143;51.634;7.112;2023-04-24T04:14:06;9.60;1.00
314;DHT22;143;51.634;7.112;2023-04-24T04:16:31;9.60;1.00
314;DHT22;143;51.634;7.112;2023-04-24T04:18:57;9.60;1.00
314;DHT22;143;51.634;7.112;2023-04-24T04:21:23;9.70;1.00
314;DHT22;143;51.634;7.112;2023-04-24T04:23:49;9.60;1.00
314;DHT22;143;51.634;7.112;2023-04-24T04:26:15;9.60;1.00
314;DHT22;143;51.634;7.112;2023-04-24T04:28:40;9.60;1.00
314;DHT22;143;51.634;7.112;2023-04-24T04:31:07;9.70;1.00
314;DHT22;143;51.634;7.112;2023-04-24T04:33:33;9.50;1.00
314;DHT22;143;51.634;7.112;2023-04-24T04:35:59;9.70;1.00
314;DHT22;143;51.634;7.112;2023-04-24T04:38:25;9.60;1.00
314;DHT22;143;51.634;7.112;2023-04-24T04:40:55;9.50;1.00
314;DHT22;143;51.634;7.112;2023-04-24T04:43:25;9.90;1.00
314;DHT22;143;51.634;7.112;2023-04-24T04:45:52;9.70;1.00
314;DHT22;143;51.634;7.112;2023-04-24T04:48:19;9.60;1.00
314;DHT22;143;51.634;7.112;2023-04-24T04:50:45;9.70;1.00
314;DHT22;143;51.634;7.112;2023-04-24T04:53:11;9.80;1.00
314;DHT22;143;51.634;7.112;2023-04-24T04:55:37;9.70;1.00
314;DHT22;143;51.634;7.112;2023-04-24T04:58:03;9.70;1.00
314;DHT22;143;51.634;7.112;2023-04-24T05:00:29;9.70;1.00
314;DHT22;143;51.634;7.112;2023-04-24T05:02:59;9.50;1.00
314;DHT22;143;51.634;7.112;2023-04-24T05:05:25;9.90;1.00
314;DHT22;143;51.634;7.112;2023-04-24T05:07:50;9.90;1.00
314;DHT22;143;51.634;7.112;2023-04-24T05:10:16;9.80;1.00
314;DHT22;143;51.634;7.112;2023-04-24T05:12:42;9.90;1.00
314;DHT22;143;51.634;7.112;2023-04-24T05:15:07;9.80;1.00
314;DHT22;143;51.634;7.112;2023-04-24T05:17:33;9.80;1.00
314;DHT22;143;51.634;7.112;2023-04-24T05:19:59;9.90;1.00
314;DHT22;143;51.634;7.112;2023-04-24T05:22:26;9.60;1.00
314;DHT22;143;51.634;7.112;2023-04-24T05:24:51;9.90;1.00
314;DHT22;143;51.634;7.112;2023-04-24T05:27:17;9.80;1.00
314;DHT22;143;51.634;7.112;2023-04-24T05:29:43;9.90;1.00
314;DHT22;143;51.634;7.112;2023-04-24T05:32:09;9.80;1.00
314;DHT22;143;51.634;7.112;2023-04-24T05:34:34;9.90;1.00
314;DHT22;143;51.634;7.112;2023-04-24T05:37:00;9.90;1.00
314;DHT22;143;51.634;7.112;2023-04-24T05:39:26;9.80;1.00
314;DHT22;143;51.634;7.112;2023-04-24T05:41:52;9.70;1.00
314;DHT22;143;51.634;7.112;2023-04-24T05:44:18;9.80;1.00
314;DHT22;143;51.634;7.112;2023-04-24T05:46:44;9.70;1.00
314;DHT22;143;51.634;7.112;2023-04-24T05:49:09;9.50;1.00
314;DHT22;143;51.634;7.112;2023-04-24T05:51:35;9.60;1.00
314;DHT22;143;51.634;7.112;2023-04-24T05:54:01;9.80;1.00
314;DHT22;143;51.634;7.112;2023-04-24T05:56:28;9.60;1.00
314;DHT22;143;51.634;7.112;2023-04-24T05:58:54;9.60;1.00
314;DHT22;143;51.634;7.112;2023-04-24T06:01:21;9.60;1.00
314;DHT22;143;51.634;7.112;2023-04-24T06:03:46;9.20;1.00
314;DHT22;143;51.634;7.112;2023-04-24T06:06:12;9.20;1.00
314;DHT22;143;51.634;7.112;2023-04-24T06:08:38;9.50;1.00
314;DHT22;143;51.634;7.112;2023-04-24T06:11:04;9.30;1.00
314;DHT22;143;51.634;7.112;2023-04-24T06:13:30;9.10;1.00
314;DHT22;143;51.634;7.112;2023-04-24T06:15:55;9.20;1.00
314;DHT22;143;51.634;7.112;2023-04-24T06:18:21;9.20;1.00
314;DHT22;143;51.634;7.112;2023-04-24T06:20:47;9.30;1.00
314;DHT22;143;51.634;7.112;2023-04-24T06:23:12;9.30;1.00
314;DHT22;143;51.634;7.112;2023-04-24T06:25:38;9.00;1.00
314;DHT22;143;51.634;7.112;2023-04-24T06:28:04;9.20;1.00
314;DHT22;143;51.634;7.112;2023-04-24T06:30:30;9.40;1.00
314;DHT22;143;51.634;7.112;2023-04-24T06:32:56;9.40;1.00
314;DHT22;143;51.634;7.112;2023-04-24T06:35:22;9.40;1.00
314;DHT22;143;51.634;7.112;2023-04-24T06:37:47;9.40;1.00
314;DHT22;143;51.634;7.112;2023-04-24T06:40:13;9.30;1.00
314;DHT22;143;51.634;7.112;2023-04-24T06:42:39;9.20;1.00
314;DHT22;143;51.634;7.112;2023-04-24T06:45:05;9.20;1.00
314;DHT22;143;51.634;7.112;2023-04-24T06:47:31;9.50;1.00
314;DHT22;143;51.634;7.112;2023-04-24T06:49:57;9.10;1.00
314;DHT22;143;51.634;7.112;2023-04-24T06:52:23;9.20;1.00
314;DHT22;143;51.634;7.112;2023-04-24T06:54:48;9.40;1.00
314;DHT22;143;51.634;7.112;2023-04-24T06:57:14;9.30;1.00
314;DHT22;143;51.634;7.112;2023-04-24T06:59:41;9.10;1.00
314;DHT22;143;51.634;7.112;2023-04-24T07:02:07;9.20;1.00
314;DHT22;143;51.634;7.112;2023-04-24T07:04:33;9.30;1.00
314;DHT22;143;51.634;7.112;2023-04-24T07:06:59;9.00;1.00
314;DHT22;143;51.634;7.112;2023-04-24T07:09:25;9.20;1.00
314;DHT22;143;51.634;7.112;2023-04-24T07:11:54;9.00;1.00
314;DHT22;143;51.634;7.112;2023-04-24T07:14:22;9.00;1.00
314;DHT22;143;51.634;7.112;2023-04-24T07:16:48;9.40;1.00
314;DHT22;143;51.634;7.112;2023-04-24T07:19:13;9.40;1.00
314;DHT22;143;51.634;7.112;2023-04-24T07:21:39;9.20;1.00
314;DHT22;143;51.634;7.112;2023-04-24T07:24:05;9.30;1.00
314;DHT22;143;51.634;7.112;2023-04-24T07:26:34;9.40;1.00
314;DHT22;143;51.634;7.112;2023-04-24T07:29:00;9.40;1.00
314;DHT22;143;51.634;7.112;2023-04-24T07:31:26;9.20;1.00
314;DHT22;143;51.634;7.112;2023-04-24T07:33:51;8.90;1.00
314;DHT22;143;51.634;7.112;2023-04-24T07:36:17;9.00;1.00
314;DHT22;143;51.634;7.112;2023-04-24T07:38:45;9.30;1.00
314;DHT22;143;51.634;7.112;2023-04-24T07:41:12;9.20;1.00
314;DHT22;143;51.634;7.112;2023-04-24T07:43:37;9.20;1.00
314;DHT22;143;51.634;7.112;2023-04-24T07:46:03;9.20;1.00
314;DHT22;143;51.634;7.112;2023-04-24T07:48:29;9.20;1.00
314;DHT22;143;51.634;7.112;2023-04-24T07:50:54;9.00;1.00
314;DHT22;143;51.634;7.112;2023-04-24T07:53:20;9.10;1.00
314;DHT22;143;51.634;7.112;2023-04-24T07:55:46;9.10;1.00
314;DHT22;143;51.634;7.112;2023-04-24T07:58:12;9.00;1.00
314;DHT22;143;51.634;7.112;2023-04-24T08:00:38;8.80;1.00
314;DHT22;143;51.634;7.112;2023-04-24T08:03:04;9.00;1.00
314;DHT22;143;51.634;7.112;2023-04-24T08:05:30;8.90;1.00
314;DHT22;143;51.634;7.112;2023-04-24T08:07:56;8.70;1.00
314;DHT22;143;51.634;7.112;2023-04-24T08:10:23;9.00;1.00
314;DHT22;143;51.634;7.112;2023-04-24T08:12:48;9.10;1.00
314;DHT22;143;51.634;7.112;2023-04-24T08:15:14;8.70;1.00
314;DHT22;143;51.634;7.112;2023-04-24T08:17:40;8.70;1.00
314;DHT22;143;51.634;7.112;2023-04-24T08:20:06;9.10;1.00
314;DHT22;143;51.634;7.112;2023-04-24T08:22:35;9.10;1.00
314;DHT22;143;51.634;7.112;2023-04-24T08:25:01;8.70;1.00
314;DHT22;143;51.634;7.112;2023-04-24T08:27:27;8.70;1.00
314;DHT22;143;51.634;7.112;2023-04-24T08:29:53;8.60;1.00
314;DHT22;143;51.634;7.112;2023-04-24T08:32:19;8.80;1.00
314;DHT22;143;51.634;7.112;2023-04-24T08:34:45;8.70;1.00
314;DHT22;143;51.634;7.112;2023-04-24T08:37:11;8.70;1.00
314;DHT22;143;51.634;7.112;2023-04-24T08:39:37;8.70;1.00
314;DHT22;143;51.634;7.112;2023-04-24T08:42:04;8.60;1.00
314;DHT22;143;51.634;7.112;2023-04-24T08:44:33;8.80;1.00
314;DHT22;143;51.634;7.112;2023-04-24T08:47:01;8.70;1.00
314;DHT22;143;51.634;7.112;2023-04-24T08:49:28;8.70;1.00
314;DHT22;143;51.634;7.112;2023-04-24T08:51:54;8.70;1.00
314;DHT22;143;51.634;7.112;2023-04-24T08:54:21;8.60;1.00
314;DHT22;143;51.634;7.112;2023-04-24T08:56:48;8.70;1.00
314;DHT22;143;51.634;7.112;2023-04-24T08:59:15;8.70;1.00
314;DHT22;143;51.634;7.112;2023-04-24T09:01:41;8.60;1.00
314;DHT22;143;51.634;7.112;2023-04-24T09:04:09;8.90;1.00
314;DHT22;143;51.634;7.112;2023-04-24T09:06:36;8.80;1.00
314;DHT22;143;51.634;7.112;2023-04-24T09:09:02;8.70;1.00
314;DHT22;143;51.634;7.112;2023-04-24T09:11:30;8.90;1.00
314;DHT22;143;51.634;7.112;2023-04-24T09:13:57;8.80;1.00
314;DHT22;143;51.634;7.112;2023-04-24T09:16:25;9.00;1.00
314;DHT22;143;51.634;7.112;2023-04-24T09:18:51;8.70;1.00
314;DHT22;143;51.634;7.112;2023-04-24T09:21:17;9.00;1.00
314;DHT22;143;51.634;7.112;2023-04-24T09:23:45;9.20;1.00
314;DHT22;143;51.634;7.112;2023-04-24T09:26:11;9.00;1.00
314;DHT22;143;51.634;7.112;2023-04-24T09:28:39;9.40;1.00
314;DHT22;143;51.634;7.112;2023-04-24T09:31:16;9.50;1.00
314;DHT22;143;51.634;7.112;2023-04-24T09:34:03;9.50;1.00
314;DHT22;143;51.634;7.112;2023-04-24T09:36:39;9.50;1.00
314;DHT22;143;51.634;7.112;2023-04-24T09:39:12;9.50;1.00
314;DHT22;143;51.634;7.112;2023-04-24T09:41:51;9.40;1.00
314;DHT22;143;51.634;7.112;2023-04-24T09:44:20;9.50;1.00
314;DHT22;143;51.634;7.112;2023-04-24T09:46:51;9.50;1.00
314;DHT22;143;51.634;7.112;2023-04-24T09:49:26;9.50;1.00
314;DHT22;143;51.634;7.112;2023-04-24T09:52:01;9.60;1.00
314;DHT22;143;51.634;7.112;2023-04-24T09:54:27;9.50;1.00
314;DHT22;143;51.634;7.112;2023-04-24T09:56:55;9.50;1.00
314;DHT22;143;51.634;7.112;2023-04-24T09:59:22;9.40;1.00
314;DHT22;143;51.634;7.112;2023-04-24T10:01:48;9.50;1.00
314;DHT22;143;51.634;7.112;2023-04-24T10:04:21;9.40;1.00
314;DHT22;143;51.634;7.112;2023-04-24T10:06:48;9.50;1.00
314;DHT22;143;51.634;7.112;2023-04-24T10:09:15;9.30;1.00
314;DHT22;143;51.634;7.112;2023-04-24T10:11:46;9.50;1.00
314;DHT22;143;51.634;7.112;2023-04-24T10:14:17;9.30;1.00
314;DHT22;143;51.634;7.112;2023-04-24T10:16:43;9.40;1.00
314;DHT22;143;51.634;7.112;2023-04-24T10:19:10;9.50;1.00
314;DHT22;143;51.634;7.112;2023-04-24T10:21:37;9.40;1.00
314;DHT22;143;51.634;7.112;2023-04-24T10:24:11;9.30;1.00
314;DHT22;143;51.634;7.112;2023-04-24T10:26:38;9.00;1.00
314;DHT22;143;51.634;7.112;2023-04-24T10:29:06;9.30;1.00
314;DHT22;143;51.634;7.112;2023-04-24T10:31:36;9.30;1.00
314;DHT22;143;51.634;7.112;2023-04-24T10:34:04;9.40;1.00
314;DHT22;143;51.634;7.112;2023-04-24T10:36:32;9.50;1.00
314;DHT22;143;51.634;7.112;2023-04-24T10:39:01;9.40;1.00
314;DHT22;143;51.634;7.112;2023-04-24T10:41:27;9.50;1.00
314;DHT22;143;51.634;7.112;2023-04-24T10:46:31;9.40;1.00
314;DHT22;143;51.634;7.112;2023-04-24T10:48:57;9.50;1.00
314;DHT22;143;51.634;7.112;2023-04-24T10:51:24;9.40;1.00
314;DHT22;143;51.634;7.112;2023-04-24T10:53:51;9.40;1.00
314;DHT22;143;51.634;7.112;2023-04-24T10:56:18;9.50;1.00
314;DHT22;143;51.634;7.112;2023-04-24T10:58:51;9.20;1.00
314;DHT22;143;51.634;7.112;2023-04-24T11:01:32;9.30;1.00
314;DHT22;143;51.634;7.112;2023-04-24T11:04:03;9.30;1.00
314;DHT22;143;51.634;7.112;2023-04-24T11:06:37;9.40;1.00
314;DHT22;143;51.634;7.112;2023-04-24T11:09:10;9.50;1.00
314;DHT22;143;51.634;7.112;2023-04-24T11:11:38;9.40;1.00
314;DHT22;143;51.634;7.112;2023-04-24T11:14:10;9.50;1.00
314;DHT22;143;51.634;7.112;2023-04-24T11:16:42;9.40;1.00
314;DHT22;143;51.634;7.112;2023-04-24T11:19:24;9.20;1.00
314;DHT22;143;51.634;7.112;2023-04-24T11:22:01;9.50;1.00
314;DHT22;143;51.634;7.112;2023-04-24T11:24:48;9.50;1.00
314;DHT22;143;51.634;7.112;2023-04-24T11:27:16;9.10;1.00
314;DHT22;143;51.634;7.112;2023-04-24T11:32:30;9.50;1.00
314;DHT22;143;51.634;7.112;2023-04-24T11:34:59;9.50;1.00
314;DHT22;143;51.634;7.112;2023-04-24T11:37:36;9.70;1.00
314;DHT22;143;51.634;7.112;2023-04-24T11:40:03;9.70;1.00
314;DHT22;143;51.634;7.112;2023-04-24T11:42:34;9.70;1.00
314;DHT22;143;51.634;7.112;2023-04-24T11:45:00;9.90;1.00
314;DHT22;143;51.634;7.112;2023-04-24T11:47:31;10.00;1.00
314;DHT22;143;51.634;7.112;2023-04-24T11:49:59;10.00;1.00
314;DHT22;143;51.634;7.112;2023-04-24T11:52:26;10.20;1.00
314;DHT22;143;51.634;7.112;2023-04-24T11:54:52;9.90;1.00
314;DHT22;143;51.634;7.112;2023-04-24T11:57:22;10.20;1.00
314;DHT22;143;51.634;7.112;2023-04-24T11:59:49;10.30;1.00
314;DHT22;143;51.634;7.112;2023-04-24T12:02:24;10.20;1.00
314;DHT22;143;51.634;7.112;2023-04-24T12:04:52;10.20;1.00
314;DHT22;143;51.634;7.112;2023-04-24T12:07:18;10.20;1.00
314;DHT22;143;51.634;7.112;2023-04-24T12:09:46;10.20;1.00
314;DHT22;143;51.634;7.112;2023-04-24T12:12:13;10.30;1.00
314;DHT22;143;51.634;7.112;2023-04-24T12:14:50;10.70;1.00
314;DHT22;143;51.634;7.112;2023-04-24T12:19:52;10.70;1.00
314;DHT22;143;51.634;7.112;2023-04-24T12:22:22;10.80;1.00
314;DHT22;143;51.634;7.112;2023-04-24T12:25:04;10.70;1.00
314;DHT22;143;51.634;7.112;2023-04-24T12:27:33;10.80;1.00
314;DHT22;143;51.634;7.112;2023-04-24T12:30:02;10.80;1.00
314;DHT22;143;51.634;7.112;2023-04-24T12:32:28;10.40;1.00
314;DHT22;143;51.634;7.112;2023-04-24T12:34:55;10.30;1.00
314;DHT22;143;51.634;7.112;2023-04-24T12:37:22;10.30;1.00
314;DHT22;143;51.634;7.112;2023-04-24T12:40:11;10.20;1.00
314;DHT22;143;51.634;7.112;2023-04-24T12:42:50;10.20;1.00
314;DHT22;143;51.634;7.112;2023-04-24T12:45:19;10.30;1.00
314;DHT22;143;51.634;7.112;2023-04-24T12:47:46;10.10;1.00
314;DHT22;143;51.634;7.112;2023-04-24T12:50:13;10.20;1.00
314;DHT22;143;51.634;7.112;2023-04-24T12:52:40;9.90;1.00
314;DHT22;143;51.634;7.112;2023-04-24T12:55:06;10.10;1.00
314;DHT22;143;51.634;7.112;2023-04-24T12:57:37;10.30;1.00
314;DHT22;143;51.634;7.112;2023-04-24T13:00:05;9.90;1.00
314;DHT22;143;51.634;7.112;2023-04-24T13:02:31;9.80;1.00
314;DHT22;143;51.634;7.112;2023-04-24T13:05:01;9.90;1.00
314;DHT22;143;51.634;7.112;2023-04-24T13:07:27;10.10;1.00
314;DHT22;143;51.634;7.112;2023-04-24T13:09:54;10.40;1.00
314;DHT22;143;51.634;7.112;2023-04-24T13:12:21;10.10;1.00
314;DHT22;143;51.634;7.112;2023-04-24T13:14:48;10.10;1.00
314;DHT22;143;51.634;7.112;2023-04-24T13:17:14;10.20;1.00
314;DHT22;143;51.634;7.112;2023-04-24T13:19:41;10.10;1.00
314;DHT22;143;51.634;7.112;2023-04-24T13:22:10;10.50;1.00
314;DHT22;143;51.634;7.112;2023-04-24T13:24:36;10.40;1.00
314;DHT22;143;51.634;7.112;2023-04-24T13:27:03;10.10;1.00
314;DHT22;143;51.634;7.112;2023-04-24T13:29:29;9.90;1.00
314;DHT22;143;51.634;7.112;2023-04-24T13:31:55;9.90;1.00
314;DHT22;143;51.634;7.112;2023-04-24T13:34:22;9.90;1.00
314;DHT22;143;51.634;7.112;2023-04-24T13:36:49;9.90;1.00
314;DHT22;143;51.634;7.112;2023-04-24T13:39:15;10.00;1.00
314;DHT22;143;51.634;7.112;2023-04-24T13:41:41;10.10;1.00
314;DHT22;143;51.634;7.112;2023-04-24T13:44:07;10.10;1.00
314;DHT22;143;51.634;7.112;2023-04-24T13:46:32;10.30;1.00
314;DHT22;143;51.634;7.112;2023-04-24T13:48:59;10.10;1.00
314;DHT22;143;51.634;7.112;2023-04-24T13:51:27;10.20;1.00
314;DHT22;143;51.634;7.112;2023-04-24T13:53:53;10.40;1.00
314;DHT22;143;51.634;7.112;2023-04-24T13:56:19;10.30;1.00
314;DHT22;143;51.634;7.112;2023-04-24T13:58:45;10.40;1.00
314;DHT22;143;51.634;7.112;2023-04-24T14:01:11;10.40;1.00
314;DHT22;143;51.634;7.112;2023-04-24T14:03:38;10.20;1.00
314;DHT22;143;51.634;7.112;2023-04-24T14:06:04;10.40;1.00
314;DHT22;143;51.634;7.112;2023-04-24T14:08:29;10.40;1.00
314;DHT22;143;51.634;7.112;2023-04-24T14:10:55;10.30;1.00
314;DHT22;143;51.634;7.112;2023-04-24T14:13:21;10.30;1.00
314;DHT22;143;51.634;7.112;2023-04-24T14:15:47;10.30;1.00
314;DHT22;143;51.634;7.112;2023-04-24T14:18:13;10.50;1.00
314;DHT22;143;51.634;7.112;2023-04-24T14:20:38;10.60;1.00
314;DHT22;143;51.634;7.112;2023-04-24T14:23:04;10.60;1.00
314;DHT22;143;51.634;7.112;2023-04-24T14:25:30;10.70;1.00
314;DHT22;143;51.634;7.112;2023-04-24T14:27:56;10.80;1.00
314;DHT22;143;51.634;7.112;2023-04-24T14:30:22;10.90;1.00
314;DHT22;143;51.634;7.112;2023-04-24T14:32:48;10.40;1.00
314;DHT22;143;51.634;7.112;2023-04-24T14:35:14;10.30;1.00
314;DHT22;143;51.634;7.112;2023-04-24T14:37:40;10.40;1.00
314;DHT22;143;51.634;7.112;2023-04-24T14:40:07;10.60;1.00
314;DHT22;143;51.634;7.112;2023-04-24T14:42:33;10.20;1.00
314;DHT22;143;51.634;7.112;2023-04-24T14:44:59;10.20;1.00
314;DHT22;143;51.634;7.112;2023-04-24T14:47:25;10.20;1.00
314;DHT22;143;51.634;7.112;2023-04-24T14:49:51;10.20;1.00
314;DHT22;143;51.634;7.112;2023-04-24T14:52:17;10.30;1.00
314;DHT22;143;51.634;7.112;2023-04-24T14:54:43;10.00;1.00
314;DHT22;143;51.634;7.112;2023-04-24T14:57:09;10.30;1.00
314;DHT22;143;51.634;7.112;2023-04-24T14:59:35;10.10;1.00
314;DHT22;143;51.634;7.112;2023-04-24T15:02:01;10.40;1.00
314;DHT22;143;51.634;7.112;2023-04-24T15:04:28;10.50;1.00
314;DHT22;143;51.634;7.112;2023-04-24T15:06:54;10.30;1.00
314;DHT22;143;51.634;7.112;2023-04-24T15:09:21;10.40;1.00
314;DHT22;143;51.634;7.112;2023-04-24T15:11:47;10.70;1.00
314;DHT22;143;51.634;7.112;2023-04-24T15:14:13;10.60;1.00
314;DHT22;143;51.634;7.112;2023-04-24T15:16:39;10.60;1.00
314;DHT22;143;51.634;7.112;2023-04-24T15:19:05;10.60;1.00
314;DHT22;143;51.634;7.112;2023-04-24T15:21:31;10.70;1.00
314;DHT22;143;51.634;7.112;2023-04-24T15:23:57;10.70;1.00
314;DHT22;143;51.634;7.112;2023-04-24T15:26:23;10.80;1.00
314;DHT22;143;51.634;7.112;2023-04-24T15:28:49;11.00;1.00
314;DHT22;143;51.634;7.112;2023-04-24T15:31:17;11.10;1.00
314;DHT22;143;51.634;7.112;2023-04-24T15:33:43;10.90;1.00
314;DHT22;143;51.634;7.112;2023-04-24T15:36:10;10.90;1.00
314;DHT22;143;51.634;7.112;2023-04-24T15:38:36;10.90;1.00
314;DHT22;143;51.634;7.112;2023-04-24T15:41:02;10.80;1.00
314;DHT22;143;51.634;7.112;2023-04-24T15:43:28;10.80;1.00
314;DHT22;143;51.634;7.112;2023-04-24T15:45:59;10.60;1.00
314;DHT22;143;51.634;7.112;2023-04-24T15:48:25;10.70;1.00
314;DHT22;143;51.634;7.112;2023-04-24T15:50:51;10.70;1.00
314;DHT22;143;51.634;7.112;2023-04-24T15:53:16;10.50;1.00
314;DHT22;143;51.634;7.112;2023-04-24T15:55:47;10.20;1.00
314;DHT22;143;51.634;7.112;2023-04-24T15:58:13;10.20;1.00
314;DHT22;143;51.634;7.112;2023-04-24T16:00:39;10.40;1.00
314;DHT22;143;51.634;7.112;2023-04-24T16:03:05;10.50;1.00
314;DHT22;143;51.634;7.112;2023-04-24T16:05:31;10.50;1.00
314;DHT22;143;51.634;7.112;2023-04-24T16:07:56;10.30;1.00
314;DHT22;143;51.634;7.112;2023-04-24T16:10:22;10.40;1.00
314;DHT22;143;51.634;7.112;2023-04-24T16:12:48;10.60;1.00
314;DHT22;143;51.634;7.112;2023-04-24T16:15:16;11.00;1.00
314;DHT22;143;51.634;7.112;2023-04-24T16:17:41;10.90;1.00
314;DHT22;143;51.634;7.112;2023-04-24T16:20:07;11.00;1.00
314;DHT22;143;51.634;7.112;2023-04-24T16:22:34;11.30;1.00
314;DHT22;143;51.634;7.112;2023-04-24T16:25:00;11.10;1.00
314;DHT22;143;51.634;7.112;2023-04-24T16:27:26;11.00;99.90
314;DHT22;143;51.634;7.112;2023-04-24T16:29:51;11.00;1.00
314;DHT22;143;51.634;7.112;2023-04-24T16:32:17;11.10;99.90
314;DHT22;143;51.634;7.112;2023-04-24T16:34:43;11.00;99.90
314;DHT22;143;51.634;7.112;2023-04-24T16:37:08;11.00;99.90
314;DHT22;143;51.634;7.112;2023-04-24T16:39:36;11.00;99.90
314;DHT22;143;51.634;7.112;2023-04-24T16:42:03;11.00;99.90
314;DHT22;143;51.634;7.112;2023-04-24T16:44:30;10.80;99.90
314;DHT22;143;51.634;7.112;2023-04-24T16:46:56;10.60;99.90
314;DHT22;143;51.634;7.112;2023-04-24T16:49:22;10.60;99.90
314;DHT22;143;51.634;7.112;2023-04-24T16:51:49;10.60;99.90
314;DHT22;143;51.634;7.112;2023-04-24T16:54:15;10.60;99.90
314;DHT22;143;51.634;7.112;2023-04-24T16:56:41;10.50;99.90
314;DHT22;143;51.634;7.112;2023-04-24T16:59:07;10.60;99.90
314;DHT22;143;51.634;7.112;2023-04-24T17:01:33;10.40;99.90
314;DHT22;143;51.634;7.112;2023-04-24T17:03:59;10.50;99.90
314;DHT22;143;51.634;7.112;2023-04-24T17:06:25;10.50;99.90